sensor_id;sensor_type;location;lat;lon;timestamp;P1;durP1;ratioP1;P2;durP2;ratioP2
20896;SDS011;10608;42.600;23.398;2023-04-21T00:00:51;45.57;;;43.67;;
20896;SDS011;10608;42.600;23.398;2023-04-21T00:03:17;33.37;;;32.00;;
20896;SDS011;10608;42.600;23.398;2023-04-21T00:05:45;22.20;;;21.30;;
20896;SDS011;10608;42.600;23.398;2023-04-21T00:08:10;35.97;;;34.47;;
20896;SDS011;10608;42.600;23.398;2023-04-21T00:10:35;37.03;;;35.40;;
20896;SDS011;10608;42.600;23.398;2023-04-21T00:13:01;31.27;;;30.00;;
20896;SDS011;10608;42.600;23.398;2023-04-21T00:15:26;24.80;;;23.80;;
20896;SDS011;10608;42.600;23.398;2023-04-21T00:17:51;31.03;;;29.77;;
20896;SDS011;10608;42.600;23.398;2023-04-21T00:20:16;18.90;;;18.20;;
20896;SDS011;10608;42.600;23.398;2023-04-21T00:22:42;20.47;;;19.67;;
20896;SDS011;10608;42.600;23.398;2023-04-21T00:25:07;19.20;;;18.40;;
20896;SDS011;10608;42.600;23.398;2023-04-21T00:27:33;18.93;;;18.13;;
20896;SDS011;10608;42.600;23.398;2023-04-21T00:29:58;18.57;;;17.77;;
20896;SDS011;10608;42.600;23.398;2023-04-21T00:32:23;20.17;;;19.33;;
20896;SDS011;10608;42.600;23.398;2023-04-21T00:34:49;20.00;;;19.20;;
20896;SDS011;10608;42.600;23.398;2023-04-21T00:37:14;19.93;;;19.13;;
20896;SDS011;10608;42.600;23.398;2023-04-21T00:39:39;24.10;;;23.00;;
20896;SDS011;10608;42.600;23.398;2023-04-21T00:42:05;23.03;;;22.03;;
20896;SDS011;10608;42.600;23.398;2023-04-21T00:44:30;23.83;;;22.83;;
20896;SDS011;10608;42.600;23.398;2023-04-21T00:46:55;22.83;;;21.83;;
20896;SDS011;10608;42.600;23.398;2023-04-21T00:49:21;19.80;;;19.00;;
20896;SDS011;10608;42.600;23.398;2023-04-21T00:51:46;30.80;;;29.50;;
20896;SDS011;10608;42.600;23.398;2023-04-21T00:54:11;25.67;;;24.50;;
20896;SDS011;10608;42.600;23.398;2023-04-21T00:56:38;24.53;;;23.53;;
20896;SDS011;10608;42.600;23.398;2023-04-21T00:59:03;26.17;;;25.13;;
20896;SDS011;10608;42.600;23.398;2023-04-21T01:01:29;28.60;;;27.40;;
20896;SDS011;10608;42.600;23.398;2023-04-21T01:03:58;32.97;;;31.60;;
20896;SDS011;10608;42.600;23.398;2023-04-21T01:06:24;20.60;;;19.73;;
20896;SDS011;10608;42.600;23.398;2023-04-21T01:08:50;23.97;;;23.03;;
20896;SDS011;10608;42.600;23.398;2023-04-21T01:11:16;23.37;;;22.40;;
20896;SDS011;10608;42.600;23.398;2023-04-21T01:13:42;23.90;;;22.90;;
20896;SDS011;10608;42.600;23.398;2023-04-21T01:16:07;26.40;;;25.27;;
20896;SDS011;10608;42.600;23.398;2023-04-21T01:18:33;22.40;;;21.40;;
20896;SDS011;10608;42.600;23.398;2023-04-21T01:20:58;28.50;;;27.33;;
20896;SDS011;10608;42.600;23.398;2023-04-21T01:23:23;37.67;;;36.13;;
20896;SDS011;10608;42.600;23.398;2023-04-21T01:25:49;32.63;;;31.30;;
20896;SDS011;10608;42.600;23.398;2023-04-21T01:28:15;27.93;;;26.83;;
20896;SDS011;10608;42.600;23.398;2023-04-21T01:30:45;23.17;;;22.27;;
20896;SDS011;10608;42.600;23.398;2023-04-21T01:33:10;32.67;;;31.27;;
20896;SDS011;10608;42.600;23.398;2023-04-21T01:35:35;37.77;;;36.17;;
20896;SDS011;10608;42.600;23.398;2023-04-21T01:38:00;34.07;;;32.67;;
20896;SDS011;10608;42.600;23.398;2023-04-21T01:40:26;38.77;;;37.13;;
20896;SDS011;10608;42.600;23.398;2023-04-21T01:42:51;44.13;;;42.23;;
20896;SDS011;10608;42.600;23.398;2023-04-21T01:45:16;43.47;;;41.60;;
20896;SDS011;10608;42.600;23.398;2023-04-21T01:47:41;26.30;;;25.20;;
20896;SDS011;10608;42.600;23.398;2023-04-21T01:50:07;25.60;;;24.53;;
20896;SDS011;10608;42.600;23.398;2023-04-21T01:52:32;27.83;;;26.67;;
20896;SDS011;10608;42.600;23.398;2023-04-21T01:54:57;21.83;;;20.93;;
20896;SDS011;10608;42.600;23.398;2023-04-21T01:57:23;25.53;;;24.53;;
20896;SDS011;10608;42.600;23.398;2023-04-21T01:59:49;27.43;;;26.30;;
20896;SDS011;10608;42.600;23.398;2023-04-21T02:02:14;28.57;;;27.40;;
20896;SDS011;10608;42.600;23.398;2023-04-21T02:04:39;26.50;;;25.43;;
20896;SDS011;10608;42.600;23.398;2023-04-21T02:07:05;18.33;;;17.53;;
20896;SDS011;10608;42.600;23.398;2023-04-21T02:09:30;20.53;;;19.70;;
20896;SDS011;10608;42.600;23.398;2023-04-21T02:11:55;21.03;;;20.13;;
20896;SDS011;10608;42.600;23.398;2023-04-21T02:14:24;17.83;;;17.13;;
20896;SDS011;10608;42.600;23.398;2023-04-21T02:16:49;19.97;;;19.17;;
20896;SDS011;10608;42.600;23.398;2023-04-21T02:19:15;19.50;;;18.50;;
20896;SDS011;10608;42.600;23.398;2023-04-21T02:21:40;18.47;;;17.73;;
20896;SDS011;10608;42.600;23.398;2023-04-21T02:24:05;19.20;;;18.40;;
20896;SDS011;10608;42.600;23.398;2023-04-21T02:26:30;18.93;;;18.13;;
20896;SDS011;10608;42.600;23.398;2023-04-21T02:28:56;18.37;;;17.67;;
20896;SDS011;10608;42.600;23.398;2023-04-21T02:31:21;17.83;;;17.13;;
20896;SDS011;10608;42.600;23.398;2023-04-21T02:33:46;18.80;;;17.90;;
20896;SDS011;10608;42.600;23.398;2023-04-21T02:36:11;17.83;;;16.93;;
20896;SDS011;10608;42.600;23.398;2023-04-21T02:38:37;20.00;;;19.20;;
20896;SDS011;10608;42.600;23.398;2023-04-21T02:41:02;25.27;;;24.27;;
20896;SDS011;10608;42.600;23.398;2023-04-21T02:43:27;30.83;;;29.53;;
20896;SDS011;10608;42.600;23.398;2023-04-21T02:45:52;31.03;;;29.83;;
20896;SDS011;10608;42.600;23.398;2023-04-21T02:48:18;27.00;;;25.90;;
20896;SDS011;10608;42.600;23.398;2023-04-21T02:50:52;26.70;;;25.60;;
20896;SDS011;10608;42.600;23.398;2023-04-21T02:53:18;28.87;;;27.63;;
20896;SDS011;10608;42.600;23.398;2023-04-21T02:55:43;25.17;;;24.17;;
20896;SDS011;10608;42.600;23.398;2023-04-21T02:58:08;20.80;;;19.97;;
20896;SDS011;10608;42.600;23.398;2023-04-21T03:00:34;21.27;;;20.40;;
20896;SDS011;10608;42.600;23.398;2023-04-21T03:02:59;22.17;;;21.27;;
20896;SDS011;10608;42.600;23.398;2023-04-21T03:05:24;22.37;;;21.47;;
20896;SDS011;10608;42.600;23.398;2023-04-21T03:07:50;25.77;;;24.63;;
20896;SDS011;10608;42.600;23.398;2023-04-21T03:10:15;34.30;;;32.90;;
20896;SDS011;10608;42.600;23.398;2023-04-21T03:12:40;51.10;;;48.90;;
20896;SDS011;10608;42.600;23.398;2023-04-21T03:15:06;71.27;;;68.17;;
20896;SDS011;10608;42.600;23.398;2023-04-21T03:17:31;64.50;;;61.70;;
20896;SDS011;10608;42.600;23.398;2023-04-21T03:19:56;44.77;;;42.87;;
20896;SDS011;10608;42.600;23.398;2023-04-21T03:22:22;36.13;;;34.63;;
20896;SDS011;10608;42.600;23.398;2023-04-21T03:24:47;35.17;;;33.67;;
20896;SDS011;10608;42.600;23.398;2023-04-21T03:27:12;26.03;;;24.97;;
20896;SDS011;10608;42.600;23.398;2023-04-21T03:29:37;23.77;;;22.77;;
20896;SDS011;10608;42.600;23.398;2023-04-21T03:32:02;24.97;;;23.97;;
20896;SDS011;10608;42.600;23.398;2023-04-21T03:34:28;27.53;;;26.43;;
20896;SDS011;10608;42.600;23.398;2023-04-21T03:36:53;30.07;;;28.63;;
20896;SDS011;10608;42.600;23.398;2023-04-21T03:39:19;26.13;;;25.07;;
20896;SDS011;10608;42.600;23.398;2023-04-21T03:41:45;27.17;;;25.97;;
20896;SDS011;10608;42.600;23.398;2023-04-21T03:44:10;23.17;;;22.17;;
20896;SDS011;10608;42.600;23.398;2023-04-21T03:46:35;22.17;;;21.27;;
20896;SDS011;10608;42.600;23.398;2023-04-21T03:49:00;23.30;;;22.27;;
20896;SDS011;10608;42.600;23.398;2023-04-21T03:51:25;21.80;;;20.90;;
20896;SDS011;10608;42.600;23.398;2023-04-21T03:53:51;20.40;;;19.43;;
20896;SDS011;10608;42.600;23.398;2023-04-21T03:56:16;21.90;;;21.00;;
20896;SDS011;10608;42.600;23.398;2023-04-21T03:58:41;24.33;;;23.33;;
20896;SDS011;10608;42.600;23.398;2023-04-21T04:01:07;25.80;;;24.70;;
20896;SDS011;10608;42.600;23.398;2023-04-21T04:03:32;27.67;;;26.27;;
20896;SDS011;10608;42.600;23.398;2023-04-21T04:05:57;25.77;;;24.77;;
20896;SDS011;10608;42.600;23.398;2023-04-21T04:08:23;28.27;;;27.03;;
20896;SDS011;10608;42.600;23.398;2023-04-21T04:10:48;31.83;;;30.50;;
20896;SDS011;10608;42.600;23.398;2023-04-21T04:13:13;20.00;;;19.20;;
20896;SDS011;10608;42.600;23.398;2023-04-21T04:15:38;30.43;;;29.20;;
20896;SDS011;10608;42.600;23.398;2023-04-21T04:18:04;21.07;;;20.17;;
20896;SDS011;10608;42.600;23.398;2023-04-21T04:20:29;22.07;;;21.13;;
20896;SDS011;10608;42.600;23.398;2023-04-21T04:22:54;15.90;;;15.20;;
20896;SDS011;10608;42.600;23.398;2023-04-21T04:25:20;17.93;;;17.23;;
20896;SDS011;10608;42.600;23.398;2023-04-21T04:27:45;14.80;;;14.20;;
20896;SDS011;10608;42.600;23.398;2023-04-21T04:30:13;14.40;;;13.77;;
20896;SDS011;10608;42.600;23.398;2023-04-21T04:32:38;13.57;;;12.97;;
20896;SDS011;10608;42.600;23.398;2023-04-21T04:35:04;20.80;;;19.83;;
20896;SDS011;10608;42.600;23.398;2023-04-21T04:37:29;25.83;;;24.73;;
20896;SDS011;10608;42.600;23.398;2023-04-21T04:39:55;21.73;;;20.83;;
20896;SDS011;10608;42.600;23.398;2023-04-21T04:42:21;19.60;;;18.57;;
20896;SDS011;10608;42.600;23.398;2023-04-21T04:44:46;28.70;;;27.40;;
20896;SDS011;10608;42.600;23.398;2023-04-21T04:47:11;47.60;;;45.60;;
20896;SDS011;10608;42.600;23.398;2023-04-21T04:49:37;46.90;;;44.90;;
20896;SDS011;10608;42.600;23.398;2023-04-21T04:52:02;45.93;;;43.97;;
20896;SDS011;10608;42.600;23.398;2023-04-21T04:54:27;28.30;;;27.10;;
20896;SDS011;10608;42.600;23.398;2023-04-21T04:56:53;16.97;;;16.23;;
20896;SDS011;10608;42.600;23.398;2023-04-21T04:59:18;26.10;;;24.93;;
20896;SDS011;10608;42.600;23.398;2023-04-21T05:01:43;16.33;;;15.67;;
20896;SDS011;10608;42.600;23.398;2023-04-21T05:04:09;12.30;;;11.80;;
20896;SDS011;10608;42.600;23.398;2023-04-21T05:06:35;24.23;;;23.27;;
20896;SDS011;10608;42.600;23.398;2023-04-21T05:09:00;40.23;;;38.57;;
20896;SDS011;10608;42.600;23.398;2023-04-21T05:11:25;28.67;;;27.50;;
20896;SDS011;10608;42.600;23.398;2023-04-21T05:13:50;19.50;;;18.70;;
20896;SDS011;10608;42.600;23.398;2023-04-21T05:16:16;25.97;;;24.93;;
20896;SDS011;10608;42.600;23.398;2023-04-21T05:18:41;21.20;;;20.27;;
20896;SDS011;10608;42.600;23.398;2023-04-21T05:21:06;15.80;;;15.20;;
20896;SDS011;10608;42.600;23.398;2023-04-21T05:23:31;28.33;;;27.17;;
20896;SDS011;10608;42.600;23.398;2023-04-21T05:25:57;12.63;;;12.07;;
20896;SDS011;10608;42.600;23.398;2023-04-21T05:28:22;19.43;;;18.00;;
20896;SDS011;10608;42.600;23.398;2023-04-21T05:30:47;38.13;;;36.53;;
20896;SDS011;10608;42.600;23.398;2023-04-21T05:33:13;12.47;;;11.97;;
20896;SDS011;10608;42.600;23.398;2023-04-21T05:35:38;16.43;;;15.73;;
20896;SDS011;10608;42.600;23.398;2023-04-21T05:38:04;41.40;;;39.63;;
20896;SDS011;10608;42.600;23.398;2023-04-21T05:40:29;57.47;;;55.07;;
20896;SDS011;10608;42.600;23.398;2023-04-21T05:42:55;21.47;;;20.47;;
20896;SDS011;10608;42.600;23.398;2023-04-21T05:45:20;23.90;;;22.93;;
20896;SDS011;10608;42.600;23.398;2023-04-21T05:47:45;20.73;;;19.90;;
20896;SDS011;10608;42.600;23.398;2023-04-21T05:50:10;20.00;;;19.17;;
20896;SDS011;10608;42.600;23.398;2023-04-21T05:52:36;46.00;;;44.07;;
20896;SDS011;10608;42.600;23.398;2023-04-21T05:55:02;130.47;;;125.10;;
20896;SDS011;10608;42.600;23.398;2023-04-21T05:57:27;42.87;;;40.93;;
20896;SDS011;10608;42.600;23.398;2023-04-21T05:59:52;25.30;;;24.20;;
20896;SDS011;10608;42.600;23.398;2023-04-21T06:02:17;39.50;;;37.90;;
20896;SDS011;10608;42.600;23.398;2023-04-21T06:04:43;59.87;;;57.33;;
20896;SDS011;10608;42.600;23.398;2023-04-21T06:07:08;80.50;;;77.20;;
20896;SDS011;10608;42.600;23.398;2023-04-21T06:09:34;131.17;;;125.70;;
20896;SDS011;10608;42.600;23.398;2023-04-21T06:12:00;82.60;;;79.27;;
20896;SDS011;10608;42.600;23.398;2023-04-21T06:14:25;89.30;;;85.67;;
20896;SDS011;10608;42.600;23.398;2023-04-21T06:16:51;80.90;;;77.50;;
20896;SDS011;10608;42.600;23.398;2023-04-21T06:19:16;66.70;;;63.77;;
20896;SDS011;10608;42.600;23.398;2023-04-21T06:21:41;43.77;;;41.93;;
20896;SDS011;10608;42.600;23.398;2023-04-21T06:24:07;32.23;;;30.77;;
20896;SDS011;10608;42.600;23.398;2023-04-21T06:26:33;30.13;;;28.87;;
20896;SDS011;10608;42.600;23.398;2023-04-21T06:28:58;31.50;;;30.10;;
20896;SDS011;10608;42.600;23.398;2023-04-21T06:31:23;30.17;;;28.73;;
20896;SDS011;10608;42.600;23.398;2023-04-21T06:33:48;28.40;;;27.20;;
20896;SDS011;10608;42.600;23.398;2023-04-21T06:36:14;24.17;;;23.07;;
20896;SDS011;10608;42.600;23.398;2023-04-21T06:38:39;19.93;;;19.00;;
20896;SDS011;10608;42.600;23.398;2023-04-21T06:41:07;25.33;;;24.23;;
20896;SDS011;10608;42.600;23.398;2023-04-21T06:43:32;27.17;;;26.03;;
20896;SDS011;10608;42.600;23.398;2023-04-21T06:45:57;21.87;;;20.77;;
20896;SDS011;10608;42.600;23.398;2023-04-21T06:48:22;24.50;;;23.40;;
20896;SDS011;10608;42.600;23.398;2023-04-21T06:50:48;40.70;;;39.00;;
20896;SDS011;10608;42.600;23.398;2023-04-21T06:53:13;53.13;;;50.93;;
20896;SDS011;10608;42.600;23.398;2023-04-21T06:55:39;49.53;;;47.43;;
20896;SDS011;10608;42.600;23.398;2023-04-21T06:58:04;61.03;;;58.40;;
20896;SDS011;10608;42.600;23.398;2023-04-21T07:00:29;51.63;;;49.47;;
20896;SDS011;10608;42.600;23.398;2023-04-21T07:02:54;44.20;;;42.30;;
20896;SDS011;10608;42.600;23.398;2023-04-21T07:05:20;32.70;;;31.30;;
20896;SDS011;10608;42.600;23.398;2023-04-21T07:07:45;27.13;;;26.00;;
20896;SDS011;10608;42.600;23.398;2023-04-21T07:10:10;48.93;;;46.83;;
20896;SDS011;10608;42.600;23.398;2023-04-21T07:12:35;25.70;;;24.60;;
20896;SDS011;10608;42.600;23.398;2023-04-21T07:15:01;32.30;;;30.87;;
20896;SDS011;10608;42.600;23.398;2023-04-21T07:17:26;24.90;;;23.90;;
20896;SDS011;10608;42.600;23.398;2023-04-21T07:19:51;18.73;;;17.97;;
20896;SDS011;10608;42.600;23.398;2023-04-21T07:22:16;20.57;;;19.73;;
20896;SDS011;10608;42.600;23.398;2023-04-21T07:24:42;34.90;;;33.47;;
20896;SDS011;10608;42.600;23.398;2023-04-21T07:27:07;17.13;;;16.33;;
20896;SDS011;10608;42.600;23.398;2023-04-21T07:29:32;15.30;;;14.50;;
20896;SDS011;10608;42.600;23.398;2023-04-21T07:31:57;20.27;;;19.37;;
20896;SDS011;10608;42.600;23.398;2023-04-21T07:34:23;19.20;;;18.40;;
20896;SDS011;10608;42.600;23.398;2023-04-21T07:36:49;18.27;;;17.57;;
20896;SDS011;10608;42.600;23.398;2023-04-21T07:39:14;19.97;;;19.13;;
20896;SDS011;10608;42.600;23.398;2023-04-21T07:41:39;12.83;;;12.20;;
20896;SDS011;10608;42.600;23.398;2023-04-21T07:44:05;17.67;;;16.97;;
20896;SDS011;10608;42.600;23.398;2023-04-21T07:46:30;22.03;;;21.13;;
20896;SDS011;10608;42.600;23.398;2023-04-21T07:48:56;24.73;;;23.63;;
20896;SDS011;10608;42.600;23.398;2023-04-21T07:51:22;20.07;;;19.23;;
20896;SDS011;10608;42.600;23.398;2023-04-21T07:53:47;18.63;;;17.63;;
20896;SDS011;10608;42.600;23.398;2023-04-21T07:56:12;9.50;;;9.10;;
20896;SDS011;10608;42.600;23.398;2023-04-21T07:58:37;15.87;;;15.13;;
20896;SDS011;10608;42.600;23.398;2023-04-21T08:01:03;24.20;;;23.17;;
20896;SDS011;10608;42.600;23.398;2023-04-21T08:03:28;13.43;;;12.40;;
20896;SDS011;10608;42.600;23.398;2023-04-21T08:05:53;15.20;;;14.50;;
20896;SDS011;10608;42.600;23.398;2023-04-21T08:08:19;11.30;;;10.80;;
20896;SDS011;10608;42.600;23.398;2023-04-21T08:10:45;19.13;;;18.33;;
20896;SDS011;10608;42.600;23.398;2023-04-21T08:13:11;11.83;;;11.33;;
20896;SDS011;10608;42.600;23.398;2023-04-21T08:15:36;14.50;;;13.90;;
20896;SDS011;10608;42.600;23.398;2023-04-21T08:18:01;12.70;;;12.20;;
20896;SDS011;10608;42.600;23.398;2023-04-21T08:20:27;15.30;;;14.70;;
20896;SDS011;10608;42.600;23.398;2023-04-21T08:22:52;18.10;;;17.30;;
20896;SDS011;10608;42.600;23.398;2023-04-21T08:25:17;21.97;;;21.07;;
20896;SDS011;10608;42.600;23.398;2023-04-21T08:27:42;20.53;;;19.67;;
20896;SDS011;10608;42.600;23.398;2023-04-21T08:30:08;19.63;;;18.80;;
20896;SDS011;10608;42.600;23.398;2023-04-21T08:32:33;31.50;;;30.23;;
20896;SDS011;10608;42.600;23.398;2023-04-21T08:34:58;14.17;;;13.60;;
20896;SDS011;10608;42.600;23.398;2023-04-21T08:37:24;16.87;;;16.10;;
20896;SDS011;10608;42.600;23.398;2023-04-21T08:39:49;17.47;;;16.77;;
20896;SDS011;10608;42.600;23.398;2023-04-21T08:42:18;10.97;;;10.57;;
20896;SDS011;10608;42.600;23.398;2023-04-21T08:44:43;10.87;;;10.37;;
20896;SDS011;10608;42.600;23.398;2023-04-21T08:47:09;11.77;;;11.17;;
20896;SDS011;10608;42.600;23.398;2023-04-21T08:49:35;11.33;;;10.93;;
20896;SDS011;10608;42.600;23.398;2023-04-21T08:52:01;11.33;;;10.87;;
20896;SDS011;10608;42.600;23.398;2023-04-21T08:54:26;11.10;;;10.63;;
20896;SDS011;10608;42.600;23.398;2023-04-21T08:56:52;11.57;;;11.07;;
20896;SDS011;10608;42.600;23.398;2023-04-21T08:59:17;11.60;;;11.10;;
20896;SDS011;10608;42.600;23.398;2023-04-21T09:04:26;34.00;;;32.57;;
20896;SDS011;10608;42.600;23.398;2023-04-21T09:06:53;23.53;;;22.43;;
20896;SDS011;10608;42.600;23.398;2023-04-21T09:09:19;24.87;;;23.77;;
20896;SDS011;10608;42.600;23.398;2023-04-21T09:11:44;29.07;;;27.83;;
20896;SDS011;10608;42.600;23.398;2023-04-21T09:14:18;14.17;;;13.57;;
20896;SDS011;10608;42.600;23.398;2023-04-21T09:16:44;11.10;;;10.43;;
20896;SDS011;10608;42.600;23.398;2023-04-21T09:19:13;10.57;;;9.97;;
20896;SDS011;10608;42.600;23.398;2023-04-21T09:21:39;9.23;;;8.83;;
20896;SDS011;10608;42.600;23.398;2023-04-21T09:24:07;9.63;;;9.23;;
20896;SDS011;10608;42.600;23.398;2023-04-21T09:26:33;9.20;;;8.80;;
20896;SDS011;10608;42.600;23.398;2023-04-21T09:28:58;9.97;;;9.57;;
20896;SDS011;10608;42.600;23.398;2023-04-21T09:31:23;9.70;;;9.30;;
20896;SDS011;10608;42.600;23.398;2023-04-21T09:33:51;9.00;;;8.60;;
20896;SDS011;10608;42.600;23.398;2023-04-21T09:36:20;9.47;;;8.87;;
20896;SDS011;10608;42.600;23.398;2023-04-21T09:38:49;9.10;;;8.70;;
20896;SDS011;10608;42.600;23.398;2023-04-21T09:41:19;8.60;;;8.30;;
20896;SDS011;10608;42.600;23.398;2023-04-21T09:43:45;15.77;;;15.10;;
20896;SDS011;10608;42.600;23.398;2023-04-21T09:46:11;13.43;;;12.93;;
20896;SDS011;10608;42.600;23.398;2023-04-21T09:48:38;11.90;;;11.40;;
20896;SDS011;10608;42.600;23.398;2023-04-21T09:51:07;39.57;;;37.97;;
20896;SDS011;10608;42.600;23.398;2023-04-21T09:53:32;39.53;;;37.90;;
20896;SDS011;10608;42.600;23.398;2023-04-21T09:55:58;12.37;;;11.87;;
20896;SDS011;10608;42.600;23.398;2023-04-21T09:58:25;13.83;;;12.90;;
20896;SDS011;10608;42.600;23.398;2023-04-21T10:00:51;9.50;;;9.10;;
20896;SDS011;10608;42.600;23.398;2023-04-21T10:03:17;10.13;;;9.67;;
20896;SDS011;10608;42.600;23.398;2023-04-21T10:05:43;15.57;;;14.97;;
20896;SDS011;10608;42.600;23.398;2023-04-21T10:08:08;11.17;;;10.70;;
20896;SDS011;10608;42.600;23.398;2023-04-21T10:10:35;9.57;;;9.17;;
20896;SDS011;10608;42.600;23.398;2023-04-21T10:13:00;8.80;;;8.50;;
20896;SDS011;10608;42.600;23.398;2023-04-21T10:26:13;11.90;;;11.40;;
20896;SDS011;10608;42.600;23.398;2023-04-21T10:31:16;27.97;;;26.77;;
20896;SDS011;10608;42.600;23.398;2023-04-21T10:33:41;27.07;;;25.97;;
20896;SDS011;10608;42.600;23.398;2023-04-21T10:36:09;34.60;;;33.13;;
20896;SDS011;10608;42.600;23.398;2023-04-21T10:38:42;21.07;;;20.17;;
20896;SDS011;10608;42.600;23.398;2023-04-21T10:43:52;21.20;;;20.30;;
20896;SDS011;10608;42.600;23.398;2023-04-21T10:46:36;23.93;;;22.93;;
20896;SDS011;10608;42.600;23.398;2023-04-21T10:49:09;59.83;;;57.43;;
20896;SDS011;10608;42.600;23.398;2023-04-21T10:54:20;124.43;;;119.30;;
20896;SDS011;10608;42.600;23.398;2023-04-21T10:56:46;113.33;;;108.73;;
20896;SDS011;10608;42.600;23.398;2023-04-21T10:59:12;78.20;;;75.07;;
20896;SDS011;10608;42.600;23.398;2023-04-21T11:01:39;47.60;;;45.70;;
20896;SDS011;10608;42.600;23.398;2023-04-21T11:04:04;24.53;;;23.53;;
20896;SDS011;10608;42.600;23.398;2023-04-21T11:06:30;33.13;;;31.83;;
20896;SDS011;10608;42.600;23.398;2023-04-21T11:08:56;35.10;;;33.60;;
20896;SDS011;10608;42.600;23.398;2023-04-21T11:11:22;22.27;;;21.37;;
20896;SDS011;10608;42.600;23.398;2023-04-21T11:13:48;27.57;;;26.47;;
20896;SDS011;10608;42.600;23.398;2023-04-21T11:16:13;39.80;;;38.20;;
20896;SDS011;10608;42.600;23.398;2023-04-21T11:18:39;35.87;;;34.40;;
20896;SDS011;10608;42.600;23.398;2023-04-21T11:21:09;34.13;;;32.73;;
20896;SDS011;10608;42.600;23.398;2023-04-21T11:23:38;43.43;;;41.63;;
20896;SDS011;10608;42.600;23.398;2023-04-21T11:26:04;24.60;;;23.50;;
20896;SDS011;10608;42.600;23.398;2023-04-21T11:28:29;17.03;;;16.23;;
20896;SDS011;10608;42.600;23.398;2023-04-21T11:30:54;15.97;;;15.27;;
20896;SDS011;10608;42.600;23.398;2023-04-21T11:33:20;16.70;;;16.00;;
20896;SDS011;10608;42.600;23.398;2023-04-21T11:35:45;15.43;;;14.73;;
20896;SDS011;10608;42.600;23.398;2023-04-21T11:38:10;14.57;;;13.87;;
20896;SDS011;10608;42.600;23.398;2023-04-21T11:40:45;14.87;;;14.17;;
20896;SDS011;10608;42.600;23.398;2023-04-21T11:43:11;14.60;;;13.90;;
20896;SDS011;10608;42.600;23.398;2023-04-21T11:45:36;16.70;;;16.00;;
20896;SDS011;10608;42.600;23.398;2023-04-21T11:48:12;27.07;;;25.87;;
20896;SDS011;10608;42.600;23.398;2023-04-21T11:50:37;40.77;;;38.97;;
20896;SDS011;10608;42.600;23.398;2023-04-21T11:53:03;17.67;;;16.87;;
20896;SDS011;10608;42.600;23.398;2023-04-21T11:55:28;13.33;;;12.83;;
20896;SDS011;10608;42.600;23.398;2023-04-21T11:57:53;13.27;;;12.50;;
20896;SDS011;10608;42.600;23.398;2023-04-21T12:00:21;18.40;;;17.67;;
20896;SDS011;10608;42.600;23.398;2023-04-21T12:02:53;36.03;;;34.47;;
20896;SDS011;10608;42.600;23.398;2023-04-21T12:05:18;21.00;;;20.00;;
20896;SDS011;10608;42.600;23.398;2023-04-21T12:07:44;13.17;;;12.40;;
20896;SDS011;10608;42.600;23.398;2023-04-21T12:12:36;30.20;;;28.80;;
20896;SDS011;10608;42.600;23.398;2023-04-21T12:15:01;10.53;;;10.03;;
20896;SDS011;10608;42.600;23.398;2023-04-21T12:17:33;16.47;;;15.77;;
20896;SDS011;10608;42.600;23.398;2023-04-21T12:20:02;16.17;;;15.50;;
20896;SDS011;10608;42.600;23.398;2023-04-21T12:22:29;24.83;;;23.67;;
20896;SDS011;10608;42.600;23.398;2023-04-21T12:24:55;31.00;;;29.67;;
20896;SDS011;10608;42.600;23.398;2023-04-21T12:27:20;22.87;;;21.87;;
20896;SDS011;10608;42.600;23.398;2023-04-21T12:29:45;18.00;;;17.20;;
20896;SDS011;10608;42.600;23.398;2023-04-21T12:32:11;13.33;;;12.63;;
20896;SDS011;10608;42.600;23.398;2023-04-21T12:34:36;11.30;;;10.80;;
20896;SDS011;10608;42.600;23.398;2023-04-21T12:37:02;15.03;;;14.37;;
20896;SDS011;10608;42.600;23.398;2023-04-21T12:39:27;14.23;;;13.60;;
20896;SDS011;10608;42.600;23.398;2023-04-21T12:41:54;20.00;;;19.07;;
20896;SDS011;10608;42.600;23.398;2023-04-21T12:44:19;25.43;;;24.30;;
20896;SDS011;10608;42.600;23.398;2023-04-21T12:46:45;12.43;;;11.83;;
20896;SDS011;10608;42.600;23.398;2023-04-21T12:49:12;9.73;;;9.33;;
20896;SDS011;10608;42.600;23.398;2023-04-21T12:51:39;10.40;;;9.90;;
20896;SDS011;10608;42.600;23.398;2023-04-21T12:54:04;12.20;;;11.67;;
20896;SDS011;10608;42.600;23.398;2023-04-21T12:56:30;26.60;;;25.40;;
20896;SDS011;10608;42.600;23.398;2023-04-21T12:58:56;83.67;;;80.17;;
20896;SDS011;10608;42.600;23.398;2023-04-21T13:01:22;87.20;;;83.63;;
20896;SDS011;10608;42.600;23.398;2023-04-21T13:03:48;43.27;;;41.50;;
20896;SDS011;10608;42.600;23.398;2023-04-21T13:06:13;30.73;;;29.50;;
20896;SDS011;10608;42.600;23.398;2023-04-21T13:08:38;17.27;;;16.47;;
20896;SDS011;10608;42.600;23.398;2023-04-21T13:11:04;30.67;;;29.40;;
20896;SDS011;10608;42.600;23.398;2023-04-21T13:13:29;29.80;;;28.60;;
20896;SDS011;10608;42.600;23.398;2023-04-21T13:15:55;30.83;;;29.57;;
20896;SDS011;10608;42.600;23.398;2023-04-21T13:18:20;23.77;;;22.80;;
20896;SDS011;10608;42.600;23.398;2023-04-21T13:20:45;30.43;;;29.13;;
20896;SDS011;10608;42.600;23.398;2023-04-21T13:23:11;21.40;;;20.53;;
20896;SDS011;10608;42.600;23.398;2023-04-21T13:25:38;23.13;;;22.20;;
20896;SDS011;10608;42.600;23.398;2023-04-21T13:28:03;20.70;;;19.87;;
20896;SDS011;10608;42.600;23.398;2023-04-21T13:30:29;149.90;;;143.47;;
20896;SDS011;10608;42.600;23.398;2023-04-21T13:32:54;20.17;;;19.30;;
20896;SDS011;10608;42.600;23.398;2023-04-21T13:35:19;20.50;;;19.70;;
20896;SDS011;10608;42.600;23.398;2023-04-21T13:37:45;19.43;;;18.63;;
20896;SDS011;10608;42.600;23.398;2023-04-21T13:40:10;21.10;;;20.20;;
20896;SDS011;10608;42.600;23.398;2023-04-21T13:42:36;22.33;;;21.47;;
20896;SDS011;10608;42.600;23.398;2023-04-21T13:45:01;18.00;;;17.27;;
20896;SDS011;10608;42.600;23.398;2023-04-21T13:47:30;22.33;;;21.43;;
20896;SDS011;10608;42.600;23.398;2023-04-21T13:49:55;14.63;;;14.03;;
20896;SDS011;10608;42.600;23.398;2023-04-21T13:52:21;14.33;;;13.77;;
20896;SDS011;10608;42.600;23.398;2023-04-21T13:54:46;18.30;;;17.57;;
20896;SDS011;10608;42.600;23.398;2023-04-21T13:57:11;21.17;;;20.17;;
20896;SDS011;10608;42.600;23.398;2023-04-21T13:59:37;23.03;;;22.10;;
20896;SDS011;10608;42.600;23.398;2023-04-21T14:02:02;23.53;;;22.53;;
20896;SDS011;10608;42.600;23.398;2023-04-21T14:04:28;22.20;;;21.30;;
20896;SDS011;10608;42.600;23.398;2023-04-21T14:06:53;16.30;;;15.63;;
20896;SDS011;10608;42.600;23.398;2023-04-21T14:09:19;25.57;;;24.53;;
20896;SDS011;10608;42.600;23.398;2023-04-21T14:11:45;38.60;;;37.03;;
20896;SDS011;10608;42.600;23.398;2023-04-21T14:14:10;36.93;;;35.30;;
20896;SDS011;10608;42.600;23.398;2023-04-21T14:16:35;19.73;;;18.83;;
20896;SDS011;10608;42.600;23.398;2023-04-21T14:19:00;14.83;;;14.13;;
20896;SDS011;10608;42.600;23.398;2023-04-21T14:21:26;17.20;;;16.43;;
20896;SDS011;10608;42.600;23.398;2023-04-21T14:23:51;15.33;;;14.73;;